sensor_id;sensor_type;location;lat;lon;timestamp;P1;durP1;ratioP1;P2;durP2;ratioP2
68821;SDS011;55834;50.870;4.606;2022-08-01T00:00:08;2.53;;;0.70;;
68821;SDS011;55834;50.870;4.606;2022-08-01T00:02:34;1.77;;;0.80;;
68821;SDS011;55834;50.870;4.606;2022-08-01T00:04:59;1.10;;;0.73;;
68821;SDS011;55834;50.870;4.606;2022-08-01T00:07:26;1.88;;;1.20;;
68821;SDS011;55834;50.870;4.606;2022-08-01T00:09:51;2.10;;;1.30;;
68821;SDS011;55834;50.870;4.606;2022-08-01T00:12:17;2.50;;;1.53;;
68821;SDS011;55834;50.870;4.606;2022-08-01T00:14:42;3.47;;;1.48;;
68821;SDS011;55834;50.870;4.606;2022-08-01T00:17:08;6.10;;;1.67;;
68821;SDS011;55834;50.870;4.606;2022-08-01T00:19:33;2.93;;;1.37;;
68821;SDS011;55834;50.870;4.606;2022-08-01T00:21:59;2.65;;;1.48;;
68821;SDS011;55834;50.870;4.606;2022-08-01T00:24:24;1.58;;;1.23;;
68821;SDS011;55834;50.870;4.606;2022-08-01T00:26:50;3.03;;;1.10;;
68821;SDS011;55834;50.870;4.606;2022-08-01T00:29:15;2.43;;;1.30;;
68821;SDS011;55834;50.870;4.606;2022-08-01T00:31:40;3.60;;;1.83;;
68821;SDS011;55834;50.870;4.606;2022-08-01T00:34:06;3.10;;;1.58;;
68821;SDS011;55834;50.870;4.606;2022-08-01T00:36:31;4.32;;;2.05;;
68821;SDS011;55834;50.870;4.606;2022-08-01T00:38:57;3.20;;;1.93;;
68821;SDS011;55834;50.870;4.606;2022-08-01T00:41:22;2.47;;;1.57;;
68821;SDS011;55834;50.870;4.606;2022-08-01T00:43:47;3.92;;;1.83;;
68821;SDS011;55834;50.870;4.606;2022-08-01T00:46:13;2.22;;;1.83;;
68821;SDS011;55834;50.870;4.606;2022-08-01T00:48:38;4.30;;;2.22;;
68821;SDS011;55834;50.870;4.606;2022-08-01T00:51:04;3.00;;;2.00;;
68821;SDS011;55834;50.870;4.606;2022-08-01T00:53:30;2.80;;;1.90;;
68821;SDS011;55834;50.870;4.606;2022-08-01T00:55:56;6.63;;;2.30;;
68821;SDS011;55834;50.870;4.606;2022-08-01T00:58:22;4.93;;;1.90;;
68821;SDS011;55834;50.870;4.606;2022-08-01T01:00:47;3.65;;;2.28;;
68821;SDS011;55834;50.870;4.606;2022-08-01T01:03:13;5.03;;;2.83;;
68821;SDS011;55834;50.870;4.606;2022-08-01T01:05:48;4.07;;;1.85;;
68821;SDS011;55834;50.870;4.606;2022-08-01T01:08:22;4.07;;;2.08;;
68821;SDS011;55834;50.870;4.606;2022-08-01T01:10:56;2.70;;;1.88;;
68821;SDS011;55834;50.870;4.606;2022-08-01T01:16:06;3.75;;;1.90;;
68821;SDS011;55834;50.870;4.606;2022-08-01T01:23:54;2.10;;;1.83;;
68821;SDS011;55834;50.870;4.606;2022-08-01T01:29:30;4.28;;;1.77;;
68821;SDS011;55834;50.870;4.606;2022-08-01T01:32:10;4.43;;;2.20;;
68821;SDS011;55834;50.870;4.606;2022-08-01T01:34:40;3.97;;;2.40;;
68821;SDS011;55834;50.870;4.606;2022-08-01T01:37:09;3.88;;;2.08;;
68821;SDS011;55834;50.870;4.606;2022-08-01T01:39:38;3.80;;;1.80;;
68821;SDS011;55834;50.870;4.606;2022-08-01T01:42:05;3.50;;;2.20;;
68821;SDS011;55834;50.870;4.606;2022-08-01T01:44:31;5.30;;;1.90;;
68821;SDS011;55834;50.870;4.606;2022-08-01T01:46:58;2.90;;;1.77;;
68821;SDS011;55834;50.870;4.606;2022-08-01T01:49:25;4.38;;;1.95;;
68821;SDS011;55834;50.870;4.606;2022-08-01T01:51:53;2.92;;;2.20;;
68821;SDS011;55834;50.870;4.606;2022-08-01T01:54:21;3.78;;;2.35;;
68821;SDS011;55834;50.870;4.606;2022-08-01T01:56:49;3.15;;;2.22;;
68821;SDS011;55834;50.870;4.606;2022-08-01T01:59:18;4.38;;;2.65;;
68821;SDS011;55834;50.870;4.606;2022-08-01T02:01:49;3.75;;;2.20;;
68821;SDS011;55834;50.870;4.606;2022-08-01T02:04:17;4.07;;;2.42;;
68821;SDS011;55834;50.870;4.606;2022-08-01T02:06:45;2.88;;;2.33;;
68821;SDS011;55834;50.870;4.606;2022-08-01T02:09:11;4.05;;;2.33;;
68821;SDS011;55834;50.870;4.606;2022-08-01T02:11:40;5.22;;;3.10;;
68821;SDS011;55834;50.870;4.606;2022-08-01T02:14:07;3.45;;;2.65;;
68821;SDS011;55834;50.870;4.606;2022-08-01T02:16:35;4.47;;;2.85;;
68821;SDS011;55834;50.870;4.606;2022-08-01T02:19:03;7.35;;;3.10;;
68821;SDS011;55834;50.870;4.606;2022-08-01T02:21:39;4.35;;;3.10;;
68821;SDS011;55834;50.870;4.606;2022-08-01T02:24:17;4.45;;;2.30;;
68821;SDS011;55834;50.870;4.606;2022-08-01T02:26:49;4.32;;;2.80;;
68821;SDS011;55834;50.870;4.606;2022-08-01T02:29:26;5.28;;;3.17;;
68821;SDS011;55834;50.870;4.606;2022-08-01T02:31:56;6.18;;;3.58;;
68821;SDS011;55834;50.870;4.606;2022-08-01T02:34:22;5.50;;;3.70;;
68821;SDS011;55834;50.870;4.606;2022-08-01T02:36:50;5.35;;;3.70;;
68821;SDS011;55834;50.870;4.606;2022-08-01T02:41:45;5.68;;;3.50;;
68821;SDS011;55834;50.870;4.606;2022-08-01T02:44:15;8.43;;;4.30;;
68821;SDS011;55834;50.870;4.606;2022-08-01T02:47:06;8.45;;;4.60;;
68821;SDS011;55834;50.870;4.606;2022-08-01T02:49:31;6.60;;;3.60;;
68821;SDS011;55834;50.870;4.606;2022-08-01T02:52:01;8.43;;;4.22;;
68821;SDS011;55834;50.870;4.606;2022-08-01T02:54:30;7.25;;;3.95;;
68821;SDS011;55834;50.870;4.606;2022-08-01T02:56:57;8.38;;;4.68;;
68821;SDS011;55834;50.870;4.606;2022-08-01T02:59:23;6.07;;;3.88;;
68821;SDS011;55834;50.870;4.606;2022-08-01T03:01:51;8.30;;;4.25;;
68821;SDS011;55834;50.870;4.606;2022-08-01T03:04:20;8.02;;;5.10;;
68821;SDS011;55834;50.870;4.606;2022-08-01T03:06:47;10.68;;;5.93;;
68821;SDS011;55834;50.870;4.606;2022-08-01T03:09:13;10.25;;;5.57;;
68821;SDS011;55834;50.870;4.606;2022-08-01T03:11:39;9.45;;;5.30;;
68821;SDS011;55834;50.870;4.606;2022-08-01T03:14:07;9.45;;;5.45;;
68821;SDS011;55834;50.870;4.606;2022-08-01T03:16:35;8.73;;;5.50;;
68821;SDS011;55834;50.870;4.606;2022-08-01T03:19:03;8.30;;;4.90;;
68821;SDS011;55834;50.870;4.606;2022-08-01T03:21:30;9.75;;;4.95;;
68821;SDS011;55834;50.870;4.606;2022-08-01T03:23:57;12.10;;;6.00;;
68821;SDS011;55834;50.870;4.606;2022-08-01T03:26:29;15.30;;;8.27;;
68821;SDS011;55834;50.870;4.606;2022-08-01T03:28:58;14.82;;;6.63;;
68821;SDS011;55834;50.870;4.606;2022-08-01T03:31:27;14.63;;;7.40;;
68821;SDS011;55834;50.870;4.606;2022-08-01T03:33:53;14.20;;;6.85;;
68821;SDS011;55834;50.870;4.606;2022-08-01T03:36:20;13.55;;;7.22;;
68821;SDS011;55834;50.870;4.606;2022-08-01T03:38:50;12.57;;;6.30;;
68821;SDS011;55834;50.870;4.606;2022-08-01T03:41:21;12.35;;;6.95;;
68821;SDS011;55834;50.870;4.606;2022-08-01T03:43:51;14.38;;;7.82;;
68821;SDS011;55834;50.870;4.606;2022-08-01T03:46:35;11.02;;;5.78;;
68821;SDS011;55834;50.870;4.606;2022-08-01T03:49:09;11.98;;;6.97;;
68821;SDS011;55834;50.870;4.606;2022-08-01T03:51:39;12.82;;;6.60;;
68821;SDS011;55834;50.870;4.606;2022-08-01T03:54:05;13.68;;;6.65;;
68821;SDS011;55834;50.870;4.606;2022-08-01T03:56:33;17.92;;;7.00;;
68821;SDS011;55834;50.870;4.606;2022-08-01T03:59:01;12.20;;;5.70;;
68821;SDS011;55834;50.870;4.606;2022-08-01T04:01:28;15.00;;;6.78;;
68821;SDS011;55834;50.870;4.606;2022-08-01T04:03:58;14.82;;;6.97;;
68821;SDS011;55834;50.870;4.606;2022-08-01T04:06:24;15.40;;;7.15;;
68821;SDS011;55834;50.870;4.606;2022-08-01T04:08:49;10.13;;;5.72;;
68821;SDS011;55834;50.870;4.606;2022-08-01T04:11:24;14.20;;;6.88;;
68821;SDS011;55834;50.870;4.606;2022-08-01T04:13:53;13.45;;;6.63;;
68821;SDS011;55834;50.870;4.606;2022-08-01T04:16:19;13.48;;;7.47;;
68821;SDS011;55834;50.870;4.606;2022-08-01T04:18:45;13.70;;;6.38;;
68821;SDS011;55834;50.870;4.606;2022-08-01T04:21:11;11.07;;;6.20;;
68821;SDS011;55834;50.870;4.606;2022-08-01T04:23:37;13.80;;;6.70;;
68821;SDS011;55834;50.870;4.606;2022-08-01T04:26:05;11.40;;;6.18;;
68821;SDS011;55834;50.870;4.606;2022-08-01T04:28:33;14.18;;;7.00;;
68821;SDS011;55834;50.870;4.606;2022-08-01T04:30:59;11.95;;;7.90;;
68821;SDS011;55834;50.870;4.606;2022-08-01T04:33:25;11.30;;;7.15;;
68821;SDS011;55834;50.870;4.606;2022-08-01T04:35:53;14.10;;;8.02;;
68821;SDS011;55834;50.870;4.606;2022-08-01T04:38:21;11.60;;;6.65;;
68821;SDS011;55834;50.870;4.606;2022-08-01T04:40:52;13.25;;;7.97;;
68821;SDS011;55834;50.870;4.606;2022-08-01T04:43:17;12.00;;;6.18;;
68821;SDS011;55834;50.870;4.606;2022-08-01T04:45:43;12.27;;;6.40;;
68821;SDS011;55834;50.870;4.606;2022-08-01T04:48:11;11.55;;;7.05;;
68821;SDS011;55834;50.870;4.606;2022-08-01T04:50:38;12.23;;;7.63;;
68821;SDS011;55834;50.870;4.606;2022-08-01T04:53:11;13.80;;;7.45;;
68821;SDS011;55834;50.870;4.606;2022-08-01T04:55:37;12.00;;;7.63;;
68821;SDS011;55834;50.870;4.606;2022-08-01T04:58:03;16.83;;;8.10;;
68821;SDS011;55834;50.870;4.606;2022-08-01T05:00:28;11.48;;;7.20;;
68821;SDS011;55834;50.870;4.606;2022-08-01T05:02:54;11.90;;;7.20;;
68821;SDS011;55834;50.870;4.606;2022-08-01T05:05:19;14.13;;;8.00;;
68821;SDS011;55834;50.870;4.606;2022-08-01T05:07:45;9.02;;;6.25;;
68821;SDS011;55834;50.870;4.606;2022-08-01T05:10:11;11.87;;;6.13;;
68821;SDS011;55834;50.870;4.606;2022-08-01T05:12:36;9.20;;;5.85;;
68821;SDS011;55834;50.870;4.606;2022-08-01T05:15:01;9.13;;;4.93;;
68821;SDS011;55834;50.870;4.606;2022-08-01T05:17:27;10.40;;;6.60;;
68821;SDS011;55834;50.870;4.606;2022-08-01T05:19:53;10.03;;;6.73;;
68821;SDS011;55834;50.870;4.606;2022-08-01T05:22:18;13.90;;;7.30;;
68821;SDS011;55834;50.870;4.606;2022-08-01T05:24:43;11.63;;;6.57;;
68821;SDS011;55834;50.870;4.606;2022-08-01T05:27:10;8.27;;;5.57;;
68821;SDS011;55834;50.870;4.606;2022-08-01T05:29:35;12.27;;;6.90;;
68821;SDS011;55834;50.870;4.606;2022-08-01T05:32:01;10.52;;;6.13;;
68821;SDS011;55834;50.870;4.606;2022-08-01T05:34:26;8.98;;;5.20;;
68821;SDS011;55834;50.870;4.606;2022-08-01T05:36:52;9.15;;;5.22;;
68821;SDS011;55834;50.870;4.606;2022-08-01T05:39:17;7.93;;;5.40;;
68821;SDS011;55834;50.870;4.606;2022-08-01T05:41:43;9.43;;;5.83;;
68821;SDS011;55834;50.870;4.606;2022-08-01T05:44:09;8.68;;;6.10;;
68821;SDS011;55834;50.870;4.606;2022-08-01T05:46:36;11.68;;;7.05;;
68821;SDS011;55834;50.870;4.606;2022-08-01T05:49:04;11.00;;;7.15;;
68821;SDS011;55834;50.870;4.606;2022-08-01T05:51:29;9.63;;;5.68;;
68821;SDS011;55834;50.870;4.606;2022-08-01T05:53:55;10.00;;;5.70;;
68821;SDS011;55834;50.870;4.606;2022-08-01T05:56:21;11.25;;;5.57;;
68821;SDS011;55834;50.870;4.606;2022-08-01T05:58:47;9.50;;;4.72;;
68821;SDS011;55834;50.870;4.606;2022-08-01T06:01:13;8.65;;;4.63;;
68821;SDS011;55834;50.870;4.606;2022-08-01T06:03:44;6.72;;;5.10;;
68821;SDS011;55834;50.870;4.606;2022-08-01T06:06:10;7.50;;;5.10;;
68821;SDS011;55834;50.870;4.606;2022-08-01T06:08:36;6.90;;;4.43;;
68821;SDS011;55834;50.870;4.606;2022-08-01T06:11:01;6.50;;;4.32;;
68821;SDS011;55834;50.870;4.606;2022-08-01T06:13:27;6.13;;;3.58;;
68821;SDS011;55834;50.870;4.606;2022-08-01T06:15:52;5.80;;;4.23;;
68821;SDS011;55834;50.870;4.606;2022-08-01T06:18:18;6.63;;;4.43;;
68821;SDS011;55834;50.870;4.606;2022-08-01T06:20:43;7.87;;;4.57;;
68821;SDS011;55834;50.870;4.606;2022-08-01T06:23:09;5.88;;;3.92;;
68821;SDS011;55834;50.870;4.606;2022-08-01T06:25:34;8.38;;;4.72;;
68821;SDS011;55834;50.870;4.606;2022-08-01T06:28:00;8.57;;;4.82;;
68821;SDS011;55834;50.870;4.606;2022-08-01T06:30:26;9.10;;;4.33;;
68821;SDS011;55834;50.870;4.606;2022-08-01T06:32:51;6.35;;;4.15;;
68821;SDS011;55834;50.870;4.606;2022-08-01T06:35:17;8.35;;;4.68;;
68821;SDS011;55834;50.870;4.606;2022-08-01T06:37:42;4.80;;;2.95;;
68821;SDS011;55834;50.870;4.606;2022-08-01T06:40:10;7.88;;;5.13;;
68821;SDS011;55834;50.870;4.606;2022-08-01T06:42:37;6.95;;;3.97;;
68821;SDS011;55834;50.870;4.606;2022-08-01T06:45:03;5.90;;;3.17;;
68821;SDS011;55834;50.870;4.606;2022-08-01T06:47:33;5.25;;;3.90;;
68821;SDS011;55834;50.870;4.606;2022-08-01T06:49:59;7.22;;;3.78;;
68821;SDS011;55834;50.870;4.606;2022-08-01T06:52:24;7.60;;;4.07;;
68821;SDS011;55834;50.870;4.606;2022-08-01T06:54:50;5.38;;;4.18;;
68821;SDS011;55834;50.870;4.606;2022-08-01T06:57:15;6.03;;;3.70;;
68821;SDS011;55834;50.870;4.606;2022-08-01T06:59:41;5.55;;;3.50;;
68821;SDS011;55834;50.870;4.606;2022-08-01T07:02:06;4.93;;;3.92;;
68821;SDS011;55834;50.870;4.606;2022-08-01T07:04:32;9.43;;;4.32;;
68821;SDS011;55834;50.870;4.606;2022-08-01T07:06:58;6.10;;;3.60;;
68821;SDS011;55834;50.870;4.606;2022-08-01T07:09:23;5.23;;;3.60;;
68821;SDS011;55834;50.870;4.606;2022-08-01T07:11:49;7.40;;;3.90;;
68821;SDS011;55834;50.870;4.606;2022-08-01T07:14:17;7.95;;;3.53;;
68821;SDS011;55834;50.870;4.606;2022-08-01T07:16:43;7.28;;;4.43;;
68821;SDS011;55834;50.870;4.606;2022-08-01T07:19:09;5.35;;;3.65;;
68821;SDS011;55834;50.870;4.606;2022-08-01T07:21:34;6.03;;;4.10;;
68821;SDS011;55834;50.870;4.606;2022-08-01T07:24:00;5.78;;;4.40;;
68821;SDS011;55834;50.870;4.606;2022-08-01T07:26:25;5.03;;;3.75;;
68821;SDS011;55834;50.870;4.606;2022-08-01T07:28:51;5.70;;;4.75;;
68821;SDS011;55834;50.870;4.606;2022-08-01T07:31:18;3.85;;;3.45;;
68821;SDS011;55834;50.870;4.606;2022-08-01T07:33:43;4.68;;;3.78;;
68821;SDS011;55834;50.870;4.606;2022-08-01T07:36:09;6.03;;;4.20;;
68821;SDS011;55834;50.870;4.606;2022-08-01T07:38:36;3.60;;;3.30;;
68821;SDS011;55834;50.870;4.606;2022-08-01T07:41:01;7.35;;;4.25;;
68821;SDS011;55834;50.870;4.606;2022-08-01T07:43:27;6.25;;;3.90;;
68821;SDS011;55834;50.870;4.606;2022-08-01T07:45:53;6.68;;;4.63;;
68821;SDS011;55834;50.870;4.606;2022-08-01T07:48:18;6.50;;;4.07;;
68821;SDS011;55834;50.870;4.606;2022-08-01T07:50:45;5.07;;;3.92;;
68821;SDS011;55834;50.870;4.606;2022-08-01T07:53:11;5.47;;;3.65;;
68821;SDS011;55834;50.870;4.606;2022-08-01T07:55:36;4.97;;;4.47;;
68821;SDS011;55834;50.870;4.606;2022-08-01T07:58:02;4.70;;;3.40;;
68821;SDS011;55834;50.870;4.606;2022-08-01T08:00:27;3.95;;;3.40;;
68821;SDS011;55834;50.870;4.606;2022-08-01T08:02:53;3.85;;;3.20;;
68821;SDS011;55834;50.870;4.606;2022-08-01T08:05:19;4.32;;;3.00;;
68821;SDS011;55834;50.870;4.606;2022-08-01T08:07:45;4.25;;;3.85;;
68821;SDS011;55834;50.870;4.606;2022-08-01T08:10:10;5.60;;;4.70;;
68821;SDS011;55834;50.870;4.606;2022-08-01T08:12:35;7.03;;;5.15;;
68821;SDS011;55834;50.870;4.606;2022-08-01T08:15:01;5.20;;;4.75;;
68821;SDS011;55834;50.870;4.606;2022-08-01T08:17:30;7.53;;;5.95;;
68821;SDS011;55834;50.870;4.606;2022-08-01T08:19:56;5.47;;;4.97;;
68821;SDS011;55834;50.870;4.606;2022-08-01T08:22:22;5.63;;;5.10;;
68821;SDS011;55834;50.870;4.606;2022-08-01T08:24:47;4.27;;;3.87;;
68821;SDS011;55834;50.870;4.606;2022-08-01T08:27:13;4.00;;;3.57;;
68821;SDS011;55834;50.870;4.606;2022-08-01T08:29:40;4.07;;;3.67;;
68821;SDS011;55834;50.870;4.606;2022-08-01T08:32:06;13.35;;;5.15;;
68821;SDS011;55834;50.870;4.606;2022-08-01T08:34:32;4.32;;;4.03;;
68821;SDS011;55834;50.870;4.606;2022-08-01T08:36:57;4.88;;;4.28;;
68821;SDS011;55834;50.870;4.606;2022-08-01T08:39:24;5.05;;;4.45;;
68821;SDS011;55834;50.870;4.606;2022-08-01T08:41:50;6.78;;;4.25;;
68821;SDS011;55834;50.870;4.606;2022-08-01T08:44:16;4.00;;;3.70;;
68821;SDS011;55834;50.870;4.606;2022-08-01T08:46:43;3.80;;;3.20;;
68821;SDS011;55834;50.870;4.606;2022-08-01T08:49:11;4.80;;;3.75;;
68821;SDS011;55834;50.870;4.606;2022-08-01T08:51:40;4.15;;;3.60;;
68821;SDS011;55834;50.870;4.606;2022-08-01T08:54:07;4.80;;;3.60;;
68821;SDS011;55834;50.870;4.606;2022-08-01T08:56:36;3.45;;;3.15;;
68821;SDS011;55834;50.870;4.606;2022-08-01T08:59:02;5.53;;;3.65;;
68821;SDS011;55834;50.870;4.606;2022-08-01T09:01:29;3.20;;;2.95;;
68821;SDS011;55834;50.870;4.606;2022-08-01T09:03:59;5.57;;;3.58;;
68821;SDS011;55834;50.870;4.606;2022-08-01T09:06:25;4.40;;;3.28;;
68821;SDS011;55834;50.870;4.606;2022-08-01T09:08:50;3.63;;;3.38;;
68821;SDS011;55834;50.870;4.606;2022-08-01T09:11:15;5.45;;;3.88;;
68821;SDS011;55834;50.870;4.606;2022-08-01T09:13:41;5.47;;;4.82;;
68821;SDS011;55834;50.870;4.606;2022-08-01T09:16:25;3.67;;;3.38;;
68821;SDS011;55834;50.870;4.606;2022-08-01T09:18:51;3.70;;;3.37;;
68821;SDS011;55834;50.870;4.606;2022-08-01T09:21:17;3.13;;;2.80;;
68821;SDS011;55834;50.870;4.606;2022-08-01T09:23:46;3.72;;;3.42;;
68821;SDS011;55834;50.870;4.606;2022-08-01T09:26:16;4.35;;;3.75;;
68821;SDS011;55834;50.870;4.606;2022-08-01T09:28:45;6.60;;;3.45;;
68821;SDS011;55834;50.870;4.606;2022-08-01T09:31:16;5.25;;;4.85;;
68821;SDS011;55834;50.870;4.606;2022-08-01T09:33:50;3.53;;;3.22;;
68821;SDS011;55834;50.870;4.606;2022-08-01T09:36:20;3.40;;;3.20;;
68821;SDS011;55834;50.870;4.606;2022-08-01T09:38:47;3.92;;;3.63;;
68821;SDS011;55834;50.870;4.606;2022-08-01T09:41:12;3.80;;;3.05;;
68821;SDS011;55834;50.870;4.606;2022-08-01T09:43:38;3.38;;;2.92;;
68821;SDS011;55834;50.870;4.606;2022-08-01T09:46:04;4.15;;;3.30;;
68821;SDS011;55834;50.870;4.606;2022-08-01T09:48:35;3.22;;;2.78;;
68821;SDS011;55834;50.870;4.606;2022-08-01T09:51:02;4.38;;;2.83;;
68821;SDS011;55834;50.870;4.606;2022-08-01T09:53:27;2.70;;;2.50;;
68821;SDS011;55834;50.870;4.606;2022-08-01T09:56:08;3.38;;;3.00;;
68821;SDS011;55834;50.870;4.606;2022-08-01T09:58:48;2.63;;;2.42;;
68821;SDS011;55834;50.870;4.606;2022-08-01T10:01:14;5.57;;;2.85;;
68821;SDS011;55834;50.870;4.606;2022-08-01T10:03:40;2.27;;;2.17;;
68821;SDS011;55834;50.870;4.606;2022-08-01T10:06:20;2.53;;;2.33;;
68821;SDS011;55834;50.870;4.606;2022-08-01T10:08:47;2.20;;;2.00;;
68821;SDS011;55834;50.870;4.606;2022-08-01T10:11:13;1.95;;;1.58;;
68821;SDS011;55834;50.870;4.606;2022-08-01T10:13:39;3.55;;;2.03;;
68821;SDS011;55834;50.870;4.606;2022-08-01T10:16:05;2.80;;;2.13;;
68821;SDS011;55834;50.870;4.606;2022-08-01T10:18:32;2.33;;;2.15;;
68821;SDS011;55834;50.870;4.606;2022-08-01T10:21:00;2.17;;;1.98;;
68821;SDS011;55834;50.870;4.606;2022-08-01T10:23:27;2.10;;;1.98;;
68821;SDS011;55834;50.870;4.606;2022-08-01T10:25:55;2.45;;;2.08;;
68821;SDS011;55834;50.870;4.606;2022-08-01T10:28:23;3.22;;;2.25;;
68821;SDS011;55834;50.870;4.606;2022-08-01T10:30:50;3.67;;;2.20;;
68821;SDS011;55834;50.870;4.606;2022-08-01T10:33:16;3.28;;;2.30;;
68821;SDS011;55834;50.870;4.606;2022-08-01T10:38:10;2.88;;;2.55;;
68821;SDS011;55834;50.870;4.606;2022-08-01T10:40:35;2.42;;;2.17;;
68821;SDS011;55834;50.870;4.606;2022-08-01T10:43:02;4.88;;;2.50;;
68821;SDS011;55834;50.870;4.606;2022-08-01T10:45:28;2.58;;;2.38;;
68821;SDS011;55834;50.870;4.606;2022-08-01T10:50:41;2.70;;;2.45;;
68821;SDS011;55834;50.870;4.606;2022-08-01T10:53:19;4.38;;;2.70;;
68821;SDS011;55834;50.870;4.606;2022-08-01T10:58:23;2.63;;;2.42;;
68821;SDS011;55834;50.870;4.606;2022-08-01T11:09:14;2.95;;;2.70;;
68821;SDS011;55834;50.870;4.606;2022-08-01T11:11:56;4.05;;;2.55;;
68821;SDS011;55834;50.870;4.606;2022-08-01T11:14:21;2.92;;;2.72;;
68821;SDS011;55834;50.870;4.606;2022-08-01T11:16:47;3.15;;;2.30;;
68821;SDS011;55834;50.870;4.606;2022-08-01T11:19:12;3.20;;;2.00;;
68821;SDS011;55834;50.870;4.606;2022-08-01T11:30:21;2.13;;;1.95;;
68821;SDS011;55834;50.870;4.606;2022-08-01T11:32:33;2.38;;;1.90;;
68821;SDS011;55834;50.870;4.606;2022-08-01T11:34:59;1.60;;;1.50;;
68821;SDS011;55834;50.870;4.606;2022-08-01T11:37:25;1.77;;;1.67;;
68821;SDS011;55834;50.870;4.606;2022-08-01T11:42:39;3.10;;;0.80;;
68821;SDS011;55834;50.870;4.606;2022-08-01T11:45:05;1.23;;;0.63;;
68821;SDS011;55834;50.870;4.606;2022-08-01T11:47:44;1.33;;;0.40;;
68821;SDS011;55834;50.870;4.606;2022-08-01T11:53:00;2.88;;;0.80;;
68821;SDS011;55834;50.870;4.606;2022-08-01T11:55:28;0.80;;;0.80;;
68821;SDS011;55834;50.870;4.606;2022-08-01T11:58:04;1.38;;;0.60;;
68821;SDS011;55834;50.870;4.606;2022-08-01T12:00:31;0.45;;;0.43;;
68821;SDS011;55834;50.870;4.606;2022-08-01T12:02:58;0.70;;;0.70;;
68821;SDS011;55834;50.870;4.606;2022-08-01T12:05:29;2.03;;;0.45;;
68821;SDS011;55834;50.870;4.606;2022-08-01T12:07:58;1.50;;;0.50;;
68821;SDS011;55834;50.870;4.606;2022-08-01T12:10:24;2.10;;;0.50;;
68821;SDS011;55834;50.870;4.606;2022-08-01T12:13:00;0.60;;;0.40;;
68821;SDS011;55834;50.870;4.606;2022-08-01T12:15:33;0.63;;;0.63;;
68821;SDS011;55834;50.870;4.606;2022-08-01T12:18:00;0.50;;;0.40;;
68821;SDS011;55834;50.870;4.606;2022-08-01T12:20:30;1.15;;;0.70;;
68821;SDS011;55834;50.870;4.606;2022-08-01T12:23:01;0.63;;;0.50;;
68821;SDS011;55834;50.870;4.606;2022-08-01T12:25:32;2.03;;;0.90;;
68821;SDS011;55834;50.870;4.606;2022-08-01T12:28:03;1.17;;;0.63;;
68821;SDS011;55834;50.870;4.606;2022-08-01T12:30:29;0.85;;;0.60;;
68821;SDS011;55834;50.870;4.606;2022-08-01T12:32:57;1.02;;;0.40;;
68821;SDS011;55834;50.870;4.606;2022-08-01T12:35:23;1.10;;;0.50;;
68821;SDS011;55834;50.870;4.606;2022-08-01T12:37:55;2.58;;;0.70;;
68821;SDS011;55834;50.870;4.606;2022-08-01T12:42:53;0.60;;;0.60;;
68821;SDS011;55834;50.870;4.606;2022-08-01T12:45:41;0.68;;;0.50;;
68821;SDS011;55834;50.870;4.606;2022-08-01T12:48:13;1.17;;;0.80;;
68821;SDS011;55834;50.870;4.606;2022-08-01T12:50:49;3.38;;;0.68;;
68821;SDS011;55834;50.870;4.606;2022-08-01T12:53:17;1.88;;;0.57;;
68821;SDS011;55834;50.870;4.606;2022-08-01T12:55:50;1.10;;;0.60;;
68821;SDS011;55834;50.870;4.606;2022-08-01T12:58:17;1.67;;;0.60;;
68821;SDS011;55834;50.870;4.606;2022-08-01T13:00:45;1.50;;;0.60;;
68821;SDS011;55834;50.870;4.606;2022-08-01T13:08:09;11.43;;;1.70;;
68821;SDS011;55834;50.870;4.606;2022-08-01T13:10:39;1.02;;;0.60;;
68821;SDS011;55834;50.870;4.606;2022-08-01T13:13:05;1.27;;;0.50;;
68821;SDS011;55834;50.870;4.606;2022-08-01T13:15:32;2.35;;;0.60;;
68821;SDS011;55834;50.870;4.606;2022-08-01T13:18:00;1.92;;;0.80;;
68821;SDS011;55834;50.870;4.606;2022-08-01T13:20:46;0.52;;;0.45;;
68821;SDS011;55834;50.870;4.606;2022-08-01T13:23:12;2.05;;;0.60;;
68821;SDS011;55834;50.870;4.606;2022-08-01T13:25:50;1.52;;;0.85;;
68821;SDS011;55834;50.870;4.606;2022-08-01T13:30:50;1.00;;;0.85;;
68821;SDS011;55834;50.870;4.606;2022-08-01T13:33:24;1.98;;;0.57;;
68821;SDS011;55834;50.870;4.606;2022-08-01T13:35:51;1.38;;;0.63;;
68821;SDS011;55834;50.870;4.606;2022-08-01T13:38:21;1.40;;;0.70;;
68821;SDS011;55834;50.870;4.606;2022-08-01T13:41:07;1.45;;;0.65;;
68821;SDS011;55834;50.870;4.606;2022-08-01T13:43:33;0.75;;;0.47;;
68821;SDS011;55834;50.870;4.606;2022-08-01T13:46:00;1.08;;;0.57;;
68821;SDS011;55834;50.870;4.606;2022-08-01T13:48:28;1.30;;;0.80;;
68821;SDS011;55834;50.870;4.606;2022-08-01T13:50:54;1.10;;;0.50;;
68821;SDS011;55834;50.870;4.606;2022-08-01T13:53:20;0.40;;;0.40;;
68821;SDS011;55834;50.870;4.606;2022-08-01T13:55:45;1.05;;;0.40;;
68821;SDS011;55834;50.870;4.606;2022-08-01T13:58:11;1.80;;;0.70;;
68821;SDS011;55834;50.870;4.606;2022-08-01T14:00:36;1.23;;;0.43;;
68821;SDS011;55834;50.870;4.606;2022-08-01T14:03:01;0.50;;;0.50;;
68821;SDS011;55834;50.870;4.606;2022-08-01T14:05:27;0.93;;;0.60;;
68821;SDS011;55834;50.870;4.606;2022-08-01T14:07:52;1.83;;;0.70;;
68821;SDS011;55834;50.870;4.606;2022-08-01T14:10:17;0.90;;;0.70;;
68821;SDS011;55834;50.870;4.606;2022-08-01T14:12:43;0.80;;;0.40;;
68821;SDS011;55834;50.870;4.606;2022-08-01T14:15:08;1.03;;;0.50;;
68821;SDS011;55834;50.870;4.606;2022-08-01T14:17:34;0.70;;;0.43;;
68821;SDS011;55834;50.870;4.606;2022-08-01T14:19:59;2.35;;;0.70;;
68821;SDS011;55834;50.870;4.606;2022-08-01T14:22:25;0.65;;;0.40;;
68821;SDS011;55834;50.870;4.606;2022-08-01T14:24:51;3.50;;;0.60;;
68821;SDS011;55834;50.870;4.606;2022-08-01T14:27:16;2.23;;;0.70;;
68821;SDS011;55834;50.870;4.606;2022-08-01T14:29:41;1.20;;;0.50;;
68821;SDS011;55834;50.870;4.606;2022-08-01T14:32:07;0.97;;;0.87;;
68821;SDS011;55834;50.870;4.606;2022-08-01T14:34:32;1.00;;;0.57;;
68821;SDS011;55834;50.870;4.606;2022-08-01T14:36:57;1.13;;;0.60;;
68821;SDS011;55834;50.870;4.606;2022-08-01T14:39:23;2.47;;;0.50;;
68821;SDS011;55834;50.870;4.606;2022-08-01T14:41:48;1.40;;;0.70;;
68821;SDS011;55834;50.870;4.606;2022-08-01T14:44:13;0.40;;;0.40;;
68821;SDS011;55834;50.870;4.606;2022-08-01T14:46:39;2.77;;;1.13;;
68821;SDS011;55834;50.870;4.606;2022-08-01T14:49:06;1.20;;;0.60;;
68821;SDS011;55834;50.870;4.606;2022-08-01T14:51:32;2.05;;;1.17;;
68821;SDS011;55834;50.870;4.606;2022-08-01T14:53:59;0.73;;;0.60;;
68821;SDS011;55834;50.870;4.606;2022-08-01T14:56:24;0.50;;;0.50;;
68821;SDS011;55834;50.870;4.606;2022-08-01T14:58:50;0.90;;;0.50;;
68821;SDS011;55834;50.870;4.606;2022-08-01T15:01:16;1.85;;;1.00;;
68821;SDS011;55834;50.870;4.606;2022-08-01T15:03:42;0.50;;;0.50;;
68821;SDS011;55834;50.870;4.606;2022-08-01T15:06:08;0.63;;;0.63;;
68821;SDS011;55834;50.870;4.606;2022-08-01T15:08:36;0.77;;;0.55;;
68821;SDS011;55834;50.870;4.606;2022-08-01T15:11:01;2.63;;;0.50;;
68821;SDS011;55834;50.870;4.606;2022-08-01T15:13:26;1.17;;;0.70;;
68821;SDS011;55834;50.870;4.606;2022-08-01T15:15:52;1.37;;;0.70;;
68821;SDS011;55834;50.870;4.606;2022-08-01T15:18:23;2.88;;;0.60;;
68821;SDS011;55834;50.870;4.606;2022-08-01T15:20:49;0.47;;;0.47;;
68821;SDS011;55834;50.870;4.606;2022-08-01T15:23:14;0.60;;;0.60;;
68821;SDS011;55834;50.870;4.606;2022-08-01T15:25:39;1.07;;;0.93;;
68821;SDS011;55834;50.870;4.606;2022-08-01T15:28:06;0.68;;;0.43;;
68821;SDS011;55834;50.870;4.606;2022-08-01T15:30:31;2.60;;;0.43;;
68821;SDS011;55834;50.870;4.606;2022-08-01T15:32:57;0.50;;;0.40;;
68821;SDS011;55834;50.870;4.606;2022-08-01T15:35:23;0.70;;;0.70;;
68821;SDS011;55834;50.870;4.606;2022-08-01T15:37:48;1.63;;;0.50;;
68821;SDS011;55834;50.870;4.606;2022-08-01T15:40:14;1.48;;;0.80;;